Mariana, Brazil
Current Conditions -  °F | °C
As of 1:00 PM on Thursday 29 Jan 2015 (Local Time) from SBMO Reporting Station
Rain Showers Rain Showers  
Wind Chill: 79°   Ceiling: 2000
Heat Index: 82°   Visibility: 6mi
Dew Point: 72°   Wind: 7mph
Humidity: 78%   Direction: 200°SSW
Pressure: 29.88"   Gusts: NA
Location:  8.98°S, 37.62°W
Report Text: SBMO 291600Z 20006KT 9999 VCSH BKN020 SCT070 26/22 Q1012
Loading
Personal Weather Stations






























Interactive Weather Map New forecast layout! Learn more

10-Day Weather Forecast

Advertisements
Track Severe Weather on mobile